sensor_id;sensor_type;location;lat;lon;timestamp;pressure;altitude;pressure_sealevel;temperature;humidity
17521;BME280;8878;-33.370;-70.552;2023-07-31T00:02:23;92113.94;;;16.94;62.23
17521;BME280;8878;-33.370;-70.552;2023-07-31T00:04:54;92112.00;;;16.86;62.03
17521;BME280;8878;-33.370;-70.552;2023-07-31T00:07:24;92108.91;;;16.70;61.92
17521;BME280;8878;-33.370;-70.552;2023-07-31T00:09:53;92116.31;;;16.73;61.75
17521;BME280;8878;-33.370;-70.552;2023-07-31T00:12:23;92105.66;;;16.73;62.20
17521;BME280;8878;-33.370;-70.552;2023-07-31T00:14:53;92095.13;;;16.68;62.68
17521;BME280;8878;-33.370;-70.552;2023-07-31T00:17:24;92095.34;;;16.58;62.88
17521;BME280;8878;-33.370;-70.552;2023-07-31T00:19:54;92095.59;;;16.48;63.12
17521;BME280;8878;-33.370;-70.552;2023-07-31T00:22:24;92097.47;;;16.47;62.80
17521;BME280;8878;-33.370;-70.552;2023-07-31T00:24:53;92098.56;;;16.46;62.49
17521;BME280;8878;-33.370;-70.552;2023-07-31T00:27:24;92099.34;;;16.47;61.86
17521;BME280;8878;-33.370;-70.552;2023-07-31T00:29:53;92109.88;;;16.52;61.53
17521;BME280;8878;-33.370;-70.552;2023-07-31T00:32:26;92110.81;;;16.56;60.94
17521;BME280;8878;-33.370;-70.552;2023-07-31T00:34:55;92107.69;;;16.54;61.29
17521;BME280;8878;-33.370;-70.552;2023-07-31T00:37:25;92104.66;;;16.47;61.32
17521;BME280;8878;-33.370;-70.552;2023-07-31T00:39:55;92120.94;;;16.45;60.99
17521;BME280;8878;-33.370;-70.552;2023-07-31T00:42:25;92117.72;;;16.34;61.11
17521;BME280;8878;-33.370;-70.552;2023-07-31T00:44:54;92117.53;;;16.31;61.08
17521;BME280;8878;-33.370;-70.552;2023-07-31T00:47:26;92124.25;;;16.28;60.94
17521;BME280;8878;-33.370;-70.552;2023-07-31T00:49:55;92125.28;;;16.19;60.27
17521;BME280;8878;-33.370;-70.552;2023-07-31T00:52:25;92133.63;;;16.26;60.69
17521;BME280;8878;-33.370;-70.552;2023-07-31T00:54:54;92130.19;;;16.25;61.12
17521;BME280;8878;-33.370;-70.552;2023-07-31T00:57:24;92141.41;;;16.22;60.93
17521;BME280;8878;-33.370;-70.552;2023-07-31T00:59:53;92138.25;;;16.20;61.16
17521;BME280;8878;-33.370;-70.552;2023-07-31T01:02:25;92133.66;;;16.12;60.40
17521;BME280;8878;-33.370;-70.552;2023-07-31T01:04:54;92138.00;;;16.08;59.96
17521;BME280;8878;-33.370;-70.552;2023-07-31T01:07:38;92135.44;;;16.03;60.29
17521;BME280;8878;-33.370;-70.552;2023-07-31T01:10:15;92134.84;;;16.06;60.15
17521;BME280;8878;-33.370;-70.552;2023-07-31T01:12:45;92132.19;;;16.06;60.90
17521;BME280;8878;-33.370;-70.552;2023-07-31T01:15:15;92125.41;;;16.00;60.96
17521;BME280;8878;-33.370;-70.552;2023-07-31T01:17:48;92135.44;;;16.03;59.89
17521;BME280;8878;-33.370;-70.552;2023-07-31T01:20:20;92138.59;;;16.05;59.87
17521;BME280;8878;-33.370;-70.552;2023-07-31T01:23:13;92140.88;;;15.98;59.79
17521;BME280;8878;-33.370;-70.552;2023-07-31T01:26:00;92131.41;;;15.92;57.55
17521;BME280;8878;-33.370;-70.552;2023-07-31T01:28:42;92137.03;;;16.04;57.35
17521;BME280;8878;-33.370;-70.552;2023-07-31T01:31:18;92141.28;;;16.05;58.71
17521;BME280;8878;-33.370;-70.552;2023-07-31T01:33:50;92143.75;;;15.88;59.13
17521;BME280;8878;-33.370;-70.552;2023-07-31T01:36:22;92146.41;;;15.74;59.01
17521;BME280;8878;-33.370;-70.552;2023-07-31T01:38:52;92137.75;;;15.82;57.76
17521;BME280;8878;-33.370;-70.552;2023-07-31T01:41:24;92137.72;;;15.96;56.58
17521;BME280;8878;-33.370;-70.552;2023-07-31T01:43:53;92130.91;;;16.03;56.79
17521;BME280;8878;-33.370;-70.552;2023-07-31T01:46:23;92135.38;;;15.94;59.06
17521;BME280;8878;-33.370;-70.552;2023-07-31T01:48:52;92145.34;;;15.89;59.21
17521;BME280;8878;-33.370;-70.552;2023-07-31T01:51:22;92138.84;;;15.81;59.29
17521;BME280;8878;-33.370;-70.552;2023-07-31T01:53:51;92137.94;;;15.72;59.74
17521;BME280;8878;-33.370;-70.552;2023-07-31T01:56:21;92138.97;;;15.62;59.97
17521;BME280;8878;-33.370;-70.552;2023-07-31T01:58:52;92143.56;;;15.57;59.29
17521;BME280;8878;-33.370;-70.552;2023-07-31T02:01:22;92129.88;;;15.63;57.19
17521;BME280;8878;-33.370;-70.552;2023-07-31T02:03:51;92124.56;;;15.63;57.97
17521;BME280;8878;-33.370;-70.552;2023-07-31T02:06:21;92123.41;;;15.56;59.40
17521;BME280;8878;-33.370;-70.552;2023-07-31T02:08:51;92127.28;;;15.45;59.17
17521;BME280;8878;-33.370;-70.552;2023-07-31T02:11:20;92114.78;;;15.32;58.52
17521;BME280;8878;-33.370;-70.552;2023-07-31T02:13:52;92111.84;;;15.33;58.28
17521;BME280;8878;-33.370;-70.552;2023-07-31T02:16:21;92117.56;;;15.40;58.53
17521;BME280;8878;-33.370;-70.552;2023-07-31T02:18:51;92118.81;;;15.29;59.16
17521;BME280;8878;-33.370;-70.552;2023-07-31T02:21:20;92119.59;;;15.16;58.57
17521;BME280;8878;-33.370;-70.552;2023-07-31T02:23:50;92113.09;;;15.22;59.24
17521;BME280;8878;-33.370;-70.552;2023-07-31T02:26:21;92122.16;;;15.21;59.90
17521;BME280;8878;-33.370;-70.552;2023-07-31T02:28:53;92122.84;;;15.13;61.30
17521;BME280;8878;-33.370;-70.552;2023-07-31T02:31:22;92122.03;;;14.99;61.19
17521;BME280;8878;-33.370;-70.552;2023-07-31T02:33:52;92126.94;;;14.92;61.68
17521;BME280;8878;-33.370;-70.552;2023-07-31T02:36:21;92107.63;;;14.86;61.83
17521;BME280;8878;-33.370;-70.552;2023-07-31T02:38:51;92108.44;;;14.86;62.12
17521;BME280;8878;-33.370;-70.552;2023-07-31T02:41:20;92104.50;;;14.84;62.75
17521;BME280;8878;-33.370;-70.552;2023-07-31T02:43:51;92112.94;;;14.86;61.79
17521;BME280;8878;-33.370;-70.552;2023-07-31T02:46:21;92109.13;;;14.92;60.34
17521;BME280;8878;-33.370;-70.552;2023-07-31T02:48:51;92113.47;;;15.02;58.76
17521;BME280;8878;-33.370;-70.552;2023-07-31T02:51:21;92113.09;;;15.08;58.09
17521;BME280;8878;-33.370;-70.552;2023-07-31T02:53:50;92124.00;;;15.07;59.70
17521;BME280;8878;-33.370;-70.552;2023-07-31T02:56:20;92123.03;;;15.03;59.25
17521;BME280;8878;-33.370;-70.552;2023-07-31T02:58:52;92124.78;;;15.07;57.37
17521;BME280;8878;-33.370;-70.552;2023-07-31T03:01:21;92127.03;;;15.00;56.95
17521;BME280;8878;-33.370;-70.552;2023-07-31T03:03:51;92126.34;;;14.95;56.40
17521;BME280;8878;-33.370;-70.552;2023-07-31T03:06:21;92134.94;;;15.05;56.08
17521;BME280;8878;-33.370;-70.552;2023-07-31T03:08:51;92131.19;;;15.06;56.98
17521;BME280;8878;-33.370;-70.552;2023-07-31T03:11:21;92128.44;;;14.98;57.47
17521;BME280;8878;-33.370;-70.552;2023-07-31T03:13:52;92128.31;;;14.89;58.81
17521;BME280;8878;-33.370;-70.552;2023-07-31T03:16:25;92130.34;;;14.78;59.41
17521;BME280;8878;-33.370;-70.552;2023-07-31T03:18:55;92124.94;;;14.70;58.69
17521;BME280;8878;-33.370;-70.552;2023-07-31T03:21:24;92127.38;;;14.66;58.73
17521;BME280;8878;-33.370;-70.552;2023-07-31T03:23:54;92135.56;;;14.70;58.21
17521;BME280;8878;-33.370;-70.552;2023-07-31T03:26:23;92130.16;;;14.75;57.41
17521;BME280;8878;-33.370;-70.552;2023-07-31T03:28:54;92122.94;;;14.62;57.52
17521;BME280;8878;-33.370;-70.552;2023-07-31T03:31:24;92124.28;;;14.59;57.71
17521;BME280;8878;-33.370;-70.552;2023-07-31T03:33:53;92117.06;;;14.46;56.99
17521;BME280;8878;-33.370;-70.552;2023-07-31T03:36:23;92122.00;;;14.34;56.76
17521;BME280;8878;-33.370;-70.552;2023-07-31T03:38:53;92122.28;;;14.32;56.38
17521;BME280;8878;-33.370;-70.552;2023-07-31T03:41:22;92124.63;;;14.39;56.80
17521;BME280;8878;-33.370;-70.552;2023-07-31T03:43:54;92113.91;;;14.44;56.42
17521;BME280;8878;-33.370;-70.552;2023-07-31T03:46:24;92116.38;;;14.40;56.50
17521;BME280;8878;-33.370;-70.552;2023-07-31T03:48:53;92115.22;;;14.28;56.07
17521;BME280;8878;-33.370;-70.552;2023-07-31T03:51:23;92114.91;;;14.29;55.45
17521;BME280;8878;-33.370;-70.552;2023-07-31T03:53:54;92105.38;;;14.47;54.67
17521;BME280;8878;-33.370;-70.552;2023-07-31T03:56:23;92107.84;;;14.57;54.41
17521;BME280;8878;-33.370;-70.552;2023-07-31T03:58:54;92109.38;;;14.63;53.78
17521;BME280;8878;-33.370;-70.552;2023-07-31T04:01:24;92116.31;;;14.59;53.35
17521;BME280;8878;-33.370;-70.552;2023-07-31T04:03:53;92122.44;;;14.60;54.28
17521;BME280;8878;-33.370;-70.552;2023-07-31T04:06:23;92128.91;;;14.54;54.55
17521;BME280;8878;-33.370;-70.552;2023-07-31T04:08:52;92129.97;;;14.34;55.31
17521;BME280;8878;-33.370;-70.552;2023-07-31T04:11:22;92128.97;;;14.30;55.99
17521;BME280;8878;-33.370;-70.552;2023-07-31T04:13:53;92126.25;;;14.35;56.04
17521;BME280;8878;-33.370;-70.552;2023-07-31T04:16:22;92134.16;;;14.40;56.29
17521;BME280;8878;-33.370;-70.552;2023-07-31T04:18:52;92129.66;;;14.35;57.03
17521;BME280;8878;-33.370;-70.552;2023-07-31T04:21:21;92132.13;;;14.32;57.20
17521;BME280;8878;-33.370;-70.552;2023-07-31T04:23:51;92128.47;;;14.28;57.55
17521;BME280;8878;-33.370;-70.552;2023-07-31T04:26:22;92122.66;;;14.26;57.52
17521;BME280;8878;-33.370;-70.552;2023-07-31T04:28:54;92124.72;;;14.29;56.60
17521;BME280;8878;-33.370;-70.552;2023-07-31T04:31:24;92119.41;;;14.29;56.33
17521;BME280;8878;-33.370;-70.552;2023-07-31T04:33:53;92117.78;;;14.33;56.22
17521;BME280;8878;-33.370;-70.552;2023-07-31T04:36:23;92120.53;;;14.28;54.43
17521;BME280;8878;-33.370;-70.552;2023-07-31T04:38:52;92114.06;;;14.34;56.01
17521;BME280;8878;-33.370;-70.552;2023-07-31T04:41:22;92113.22;;;14.38;56.11
17521;BME280;8878;-33.370;-70.552;2023-07-31T04:43:53;92105.47;;;14.42;54.87
17521;BME280;8878;-33.370;-70.552;2023-07-31T04:46:23;92102.72;;;14.47;53.78
17521;BME280;8878;-33.370;-70.552;2023-07-31T04:48:52;92094.75;;;14.47;53.23
17521;BME280;8878;-33.370;-70.552;2023-07-31T04:51:22;92098.69;;;14.49;53.04
17521;BME280;8878;-33.370;-70.552;2023-07-31T04:53:52;92105.72;;;14.59;53.83
17521;BME280;8878;-33.370;-70.552;2023-07-31T04:56:21;92099.09;;;14.57;54.77
17521;BME280;8878;-33.370;-70.552;2023-07-31T04:58:51;92101.06;;;14.51;54.50
17521;BME280;8878;-33.370;-70.552;2023-07-31T05:01:22;92096.25;;;14.53;52.87
17521;BME280;8878;-33.370;-70.552;2023-07-31T05:03:51;92099.81;;;14.62;49.51
17521;BME280;8878;-33.370;-70.552;2023-07-31T05:06:21;92096.31;;;14.80;50.43
17521;BME280;8878;-33.370;-70.552;2023-07-31T05:08:50;92095.34;;;14.76;53.01
17521;BME280;8878;-33.370;-70.552;2023-07-31T05:11:20;92095.50;;;14.66;53.30
17521;BME280;8878;-33.370;-70.552;2023-07-31T05:13:49;92095.88;;;14.60;53.04
17521;BME280;8878;-33.370;-70.552;2023-07-31T05:16:21;92097.31;;;14.52;53.79
17521;BME280;8878;-33.370;-70.552;2023-07-31T05:18:50;92091.22;;;14.52;53.77
17521;BME280;8878;-33.370;-70.552;2023-07-31T05:21:20;92091.50;;;14.50;54.57
17521;BME280;8878;-33.370;-70.552;2023-07-31T05:23:50;92089.97;;;14.49;54.66
17521;BME280;8878;-33.370;-70.552;2023-07-31T05:26:20;92098.22;;;14.47;54.42
17521;BME280;8878;-33.370;-70.552;2023-07-31T05:28:49;92098.41;;;14.51;53.91
17521;BME280;8878;-33.370;-70.552;2023-07-31T05:31:20;92085.41;;;14.49;54.26
17521;BME280;8878;-33.370;-70.552;2023-07-31T05:33:51;92097.19;;;14.43;55.26
17521;BME280;8878;-33.370;-70.552;2023-07-31T05:36:20;92092.81;;;14.34;55.88
17521;BME280;8878;-33.370;-70.552;2023-07-31T05:38:50;92092.41;;;14.27;55.32
17521;BME280;8878;-33.370;-70.552;2023-07-31T05:41:20;92092.19;;;14.23;54.83
17521;BME280;8878;-33.370;-70.552;2023-07-31T05:43:50;92087.66;;;14.24;54.12
17521;BME280;8878;-33.370;-70.552;2023-07-31T05:46:22;92089.25;;;14.25;53.91
17521;BME280;8878;-33.370;-70.552;2023-07-31T05:48:51;92090.13;;;14.20;52.93
17521;BME280;8878;-33.370;-70.552;2023-07-31T05:51:20;92092.41;;;14.27;52.87
17521;BME280;8878;-33.370;-70.552;2023-07-31T05:53:50;92080.72;;;14.28;54.34
17521;BME280;8878;-33.370;-70.552;2023-07-31T05:56:19;92088.72;;;14.23;53.88
17521;BME280;8878;-33.370;-70.552;2023-07-31T05:58:49;92092.69;;;14.25;53.62
17521;BME280;8878;-33.370;-70.552;2023-07-31T06:01:20;92091.19;;;14.19;53.56
17521;BME280;8878;-33.370;-70.552;2023-07-31T06:03:50;92090.97;;;14.16;53.38
17521;BME280;8878;-33.370;-70.552;2023-07-31T06:06:19;92091.19;;;14.19;53.53
17521;BME280;8878;-33.370;-70.552;2023-07-31T06:08:49;92090.59;;;14.22;53.35
17521;BME280;8878;-33.370;-70.552;2023-07-31T06:11:20;92082.34;;;14.24;54.04
17521;BME280;8878;-33.370;-70.552;2023-07-31T06:13:50;92078.13;;;14.23;54.11
17521;BME280;8878;-33.370;-70.552;2023-07-31T06:16:21;92078.34;;;14.26;54.69
17521;BME280;8878;-33.370;-70.552;2023-07-31T06:18:50;92080.50;;;14.24;55.20
17521;BME280;8878;-33.370;-70.552;2023-07-31T06:21:20;92086.69;;;14.20;54.67
17521;BME280;8878;-33.370;-70.552;2023-07-31T06:23:51;92085.47;;;14.12;54.50
17521;BME280;8878;-33.370;-70.552;2023-07-31T06:26:20;92079.94;;;14.08;54.44
17521;BME280;8878;-33.370;-70.552;2023-07-31T06:28:50;92079.66;;;14.10;54.39
17521;BME280;8878;-33.370;-70.552;2023-07-31T06:31:21;92083.09;;;14.10;54.50
17521;BME280;8878;-33.370;-70.552;2023-07-31T06:33:51;92089.03;;;14.02;54.70
17521;BME280;8878;-33.370;-70.552;2023-07-31T06:36:20;92091.97;;;14.01;54.55
17521;BME280;8878;-33.370;-70.552;2023-07-31T06:38:50;92090.69;;;13.98;54.55
17521;BME280;8878;-33.370;-70.552;2023-07-31T06:41:19;92090.75;;;13.93;54.70
17521;BME280;8878;-33.370;-70.552;2023-07-31T06:43:49;92094.28;;;13.89;54.53
17521;BME280;8878;-33.370;-70.552;2023-07-31T06:46:20;92097.56;;;13.81;55.69
17521;BME280;8878;-33.370;-70.552;2023-07-31T06:48:50;92093.69;;;13.73;56.01
17521;BME280;8878;-33.370;-70.552;2023-07-31T06:51:19;92097.41;;;13.72;56.66
17521;BME280;8878;-33.370;-70.552;2023-07-31T06:53:49;92105.09;;;13.73;56.42
17521;BME280;8878;-33.370;-70.552;2023-07-31T06:56:18;92095.06;;;13.70;55.72
17521;BME280;8878;-33.370;-70.552;2023-07-31T06:58:48;92095.44;;;13.64;54.69
17521;BME280;8878;-33.370;-70.552;2023-07-31T07:01:17;92085.25;;;13.71;53.87
17521;BME280;8878;-33.370;-70.552;2023-07-31T07:03:49;92093.56;;;13.83;53.68
17521;BME280;8878;-33.370;-70.552;2023-07-31T07:06:18;92092.41;;;13.70;53.60
17521;BME280;8878;-33.370;-70.552;2023-07-31T07:08:47;92085.53;;;13.69;54.01
17521;BME280;8878;-33.370;-70.552;2023-07-31T07:11:17;92088.97;;;13.70;53.98
17521;BME280;8878;-33.370;-70.552;2023-07-31T07:13:46;92088.34;;;13.78;53.98
17521;BME280;8878;-33.370;-70.552;2023-07-31T07:16:17;92085.69;;;13.78;53.96
17521;BME280;8878;-33.370;-70.552;2023-07-31T07:18:48;92087.03;;;13.76;54.20
17521;BME280;8878;-33.370;-70.552;2023-07-31T07:21:18;92085.81;;;13.68;53.93
17521;BME280;8878;-33.370;-70.552;2023-07-31T07:23:47;92083.44;;;13.66;53.94
17521;BME280;8878;-33.370;-70.552;2023-07-31T07:26:16;92074.84;;;13.56;53.65
17521;BME280;8878;-33.370;-70.552;2023-07-31T07:28:46;92073.38;;;13.45;53.66
17521;BME280;8878;-33.370;-70.552;2023-07-31T07:31:15;92087.34;;;13.50;53.64
17521;BME280;8878;-33.370;-70.552;2023-07-31T07:33:45;92083.28;;;13.58;53.76
17521;BME280;8878;-33.370;-70.552;2023-07-31T07:36:16;92082.00;;;13.55;54.34
17521;BME280;8878;-33.370;-70.552;2023-07-31T07:38:45;92081.22;;;13.55;53.32
17521;BME280;8878;-33.370;-70.552;2023-07-31T07:41:15;92080.28;;;13.64;53.10
17521;BME280;8878;-33.370;-70.552;2023-07-31T07:43:44;92073.00;;;13.75;51.98
17521;BME280;8878;-33.370;-70.552;2023-07-31T07:46:14;92077.22;;;13.76;52.49
17521;BME280;8878;-33.370;-70.552;2023-07-31T07:48:44;92076.63;;;13.79;52.22
17521;BME280;8878;-33.370;-70.552;2023-07-31T07:51:15;92088.81;;;13.80;51.23
17521;BME280;8878;-33.370;-70.552;2023-07-31T07:53:45;92077.28;;;13.90;50.72
17521;BME280;8878;-33.370;-70.552;2023-07-31T07:56:14;92083.22;;;14.00;51.27
17521;BME280;8878;-33.370;-70.552;2023-07-31T07:58:44;92077.81;;;13.92;52.69
17521;BME280;8878;-33.370;-70.552;2023-07-31T08:01:13;92078.00;;;13.77;51.95
17521;BME280;8878;-33.370;-70.552;2023-07-31T08:03:43;92087.84;;;13.76;50.39
17521;BME280;8878;-33.370;-70.552;2023-07-31T08:06:12;92083.53;;;13.80;52.67
17521;BME280;8878;-33.370;-70.552;2023-07-31T08:08:43;92081.50;;;13.72;53.54
17521;BME280;8878;-33.370;-70.552;2023-07-31T08:11:13;92094.41;;;13.60;54.70
17521;BME280;8878;-33.370;-70.552;2023-07-31T08:13:42;92087.34;;;13.50;54.79
17521;BME280;8878;-33.370;-70.552;2023-07-31T08:16:12;92086.78;;;13.35;53.76
17521;BME280;8878;-33.370;-70.552;2023-07-31T08:18:41;92086.19;;;13.38;53.43
17521;BME280;8878;-33.370;-70.552;2023-07-31T08:21:11;92081.84;;;13.47;53.38
17521;BME280;8878;-33.370;-70.552;2023-07-31T08:23:42;92080.50;;;13.49;54.11
17521;BME280;8878;-33.370;-70.552;2023-07-31T08:26:15;92086.34;;;13.46;54.89
17521;BME280;8878;-33.370;-70.552;2023-07-31T08:28:45;92078.22;;;13.43;54.08
17521;BME280;8878;-33.370;-70.552;2023-07-31T08:31:15;92082.91;;;13.46;53.87
17521;BME280;8878;-33.370;-70.552;2023-07-31T08:33:45;92094.09;;;13.43;54.26
17521;BME280;8878;-33.370;-70.552;2023-07-31T08:36:14;92098.97;;;13.36;54.64
17521;BME280;8878;-33.370;-70.552;2023-07-31T08:38:46;92099.59;;;13.27;54.77
17521;BME280;8878;-33.370;-70.552;2023-07-31T08:41:15;92096.13;;;13.27;54.26
17521;BME280;8878;-33.370;-70.552;2023-07-31T08:43:46;92099.44;;;13.38;52.53
17521;BME280;8878;-33.370;-70.552;2023-07-31T08:46:15;92099.59;;;13.46;52.00
17521;BME280;8878;-33.370;-70.552;2023-07-31T08:48:45;92101.47;;;13.46;52.03
17521;BME280;8878;-33.370;-70.552;2023-07-31T08:51:15;92101.41;;;13.51;51.06
17521;BME280;8878;-33.370;-70.552;2023-07-31T08:53:46;92095.00;;;13.57;51.04
17521;BME280;8878;-33.370;-70.552;2023-07-31T08:56:16;92113.97;;;13.64;50.48
17521;BME280;8878;-33.370;-70.552;2023-07-31T08:58:47;92116.47;;;13.74;49.85
17521;BME280;8878;-33.370;-70.552;2023-07-31T09:01:17;92118.84;;;13.76;49.92
17521;BME280;8878;-33.370;-70.552;2023-07-31T09:03:47;92121.88;;;13.69;51.37
17521;BME280;8878;-33.370;-70.552;2023-07-31T09:06:19;92124.88;;;13.62;50.99
17521;BME280;8878;-33.370;-70.552;2023-07-31T09:08:52;92138.91;;;13.63;50.12
17521;BME280;8878;-33.370;-70.552;2023-07-31T09:11:22;92139.69;;;13.63;49.11
17521;BME280;8878;-33.370;-70.552;2023-07-31T09:13:52;92150.75;;;13.70;48.91
17521;BME280;8878;-33.370;-70.552;2023-07-31T09:16:28;92159.94;;;13.78;50.00
17521;BME280;8878;-33.370;-70.552;2023-07-31T09:18:59;92150.41;;;13.77;50.68
17521;BME280;8878;-33.370;-70.552;2023-07-31T09:21:30;92153.09;;;13.72;50.58
17521;BME280;8878;-33.370;-70.552;2023-07-31T09:24:01;92157.75;;;13.61;49.74
17521;BME280;8878;-33.370;-70.552;2023-07-31T09:26:32;92175.50;;;13.61;51.01
17521;BME280;8878;-33.370;-70.552;2023-07-31T09:29:03;92174.50;;;13.57;52.07
17521;BME280;8878;-33.370;-70.552;2023-07-31T09:31:39;92172.69;;;13.52;52.68
17521;BME280;8878;-33.370;-70.552;2023-07-31T09:34:10;92174.59;;;13.47;53.22
17521;BME280;8878;-33.370;-70.552;2023-07-31T09:36:44;92178.66;;;13.39;53.35
17521;BME280;8878;-33.370;-70.552;2023-07-31T09:39:16;92178.22;;;13.32;52.95
17521;BME280;8878;-33.370;-70.552;2023-07-31T09:41:48;92183.28;;;13.28;52.79
17521;BME280;8878;-33.370;-70.552;2023-07-31T09:44:22;92184.63;;;13.26;53.80
17521;BME280;8878;-33.370;-70.552;2023-07-31T09:47:06;92188.13;;;13.21;54.24
17521;BME280;8878;-33.370;-70.552;2023-07-31T09:49:35;92199.56;;;13.17;54.72
17521;BME280;8878;-33.370;-70.552;2023-07-31T09:52:12;92201.44;;;13.11;54.60
17521;BME280;8878;-33.370;-70.552;2023-07-31T09:54:44;92190.31;;;13.09;54.74
17521;BME280;8878;-33.370;-70.552;2023-07-31T09:57:14;92191.91;;;13.10;54.99
17521;BME280;8878;-33.370;-70.552;2023-07-31T09:59:45;92189.06;;;13.02;55.13
17521;BME280;8878;-33.370;-70.552;2023-07-31T10:02:21;92195.72;;;12.99;55.08
17521;BME280;8878;-33.370;-70.552;2023-07-31T10:04:51;92190.97;;;12.96;54.60
17521;BME280;8878;-33.370;-70.552;2023-07-31T10:07:22;92189.03;;;13.07;53.64
17521;BME280;8878;-33.370;-70.552;2023-07-31T10:09:55;92191.88;;;13.15;53.09
17521;BME280;8878;-33.370;-70.552;2023-07-31T10:12:27;92196.34;;;13.20;52.75
17521;BME280;8878;-33.370;-70.552;2023-07-31T10:14:57;92197.97;;;13.16;52.80
17521;BME280;8878;-33.370;-70.552;2023-07-31T10:17:27;92205.66;;;13.12;53.95
17521;BME280;8878;-33.370;-70.552;2023-07-31T10:19:59;92206.25;;;13.04;52.28
17521;BME280;8878;-33.370;-70.552;2023-07-31T10:22:32;92208.66;;;13.06;51.70
17521;BME280;8878;-33.370;-70.552;2023-07-31T10:25:04;92220.81;;;13.07;51.00
17521;BME280;8878;-33.370;-70.552;2023-07-31T10:27:38;92214.31;;;13.23;50.96
17521;BME280;8878;-33.370;-70.552;2023-07-31T10:30:11;92212.66;;;13.32;51.90
17521;BME280;8878;-33.370;-70.552;2023-07-31T10:32:42;92211.34;;;13.29;52.73
17521;BME280;8878;-33.370;-70.552;2023-07-31T10:35:12;92223.19;;;13.13;53.98
17521;BME280;8878;-33.370;-70.552;2023-07-31T10:37:43;92229.63;;;12.97;54.25
17521;BME280;8878;-33.370;-70.552;2023-07-31T10:40:17;92245.00;;;12.95;53.69
17521;BME280;8878;-33.370;-70.552;2023-07-31T10:42:49;92244.47;;;12.98;53.38
17521;BME280;8878;-33.370;-70.552;2023-07-31T10:45:27;92230.63;;;13.06;52.97
17521;BME280;8878;-33.370;-70.552;2023-07-31T10:48:00;92230.56;;;13.11;53.22
17521;BME280;8878;-33.370;-70.552;2023-07-31T10:50:31;92225.13;;;12.98;54.03
17521;BME280;8878;-33.370;-70.552;2023-07-31T10:53:01;92224.94;;;12.89;54.44
17521;BME280;8878;-33.370;-70.552;2023-07-31T10:55:35;92241.59;;;12.89;53.46
17521;BME280;8878;-33.370;-70.552;2023-07-31T10:58:08;92235.53;;;12.89;54.39
17521;BME280;8878;-33.370;-70.552;2023-07-31T11:00:38;92228.75;;;12.73;55.46
17521;BME280;8878;-33.370;-70.552;2023-07-31T11:03:09;92233.63;;;12.61;56.03
17521;BME280;8878;-33.370;-70.552;2023-07-31T11:05:52;92230.44;;;12.59;55.46
17521;BME280;8878;-33.370;-70.552;2023-07-31T11:08:23;92238.91;;;12.61;54.92
17521;BME280;8878;-33.370;-70.552;2023-07-31T11:11:06;92238.63;;;12.62;55.12
17521;BME280;8878;-33.370;-70.552;2023-07-31T11:13:41;92247.88;;;12.65;55.58
17521;BME280;8878;-33.370;-70.552;2023-07-31T11:16:12;92243.66;;;12.64;55.23
17521;BME280;8878;-33.370;-70.552;2023-07-31T11:18:43;92249.75;;;12.64;54.70
17521;BME280;8878;-33.370;-70.552;2023-07-31T11:21:14;92248.88;;;12.74;53.92
17521;BME280;8878;-33.370;-70.552;2023-07-31T11:23:47;92258.88;;;12.82;54.60
17521;BME280;8878;-33.370;-70.552;2023-07-31T11:26:19;92267.56;;;12.87;54.85
17521;BME280;8878;-33.370;-70.552;2023-07-31T11:28:50;92274.69;;;12.92;54.94
17521;BME280;8878;-33.370;-70.552;2023-07-31T11:31:20;92273.38;;;12.89;55.90
17521;BME280;8878;-33.370;-70.552;2023-07-31T11:33:50;92290.09;;;12.85;56.56
17521;BME280;8878;-33.370;-70.552;2023-07-31T11:36:20;92297.00;;;12.81;57.55
17521;BME280;8878;-33.370;-70.552;2023-07-31T11:38:50;92299.66;;;12.81;58.84
17521;BME280;8878;-33.370;-70.552;2023-07-31T11:41:21;92304.41;;;12.84;59.86
17521;BME280;8878;-33.370;-70.552;2023-07-31T11:44:00;92306.69;;;12.95;60.16
17521;BME280;8878;-33.370;-70.552;2023-07-31T11:46:31;92312.72;;;13.06;61.93
17521;BME280;8878;-33.370;-70.552;2023-07-31T11:49:01;92320.19;;;12.99;61.26
17521;BME280;8878;-33.370;-70.552;2023-07-31T11:51:30;92320.47;;;12.98;62.40
17521;BME280;8878;-33.370;-70.552;2023-07-31T11:54:01;92325.50;;;12.94;63.44
17521;BME280;8878;-33.370;-70.552;2023-07-31T11:56:33;92327.66;;;12.92;63.15
17521;BME280;8878;-33.370;-70.552;2023-07-31T11:59:04;92326.00;;;13.01;63.09
17521;BME280;8878;-33.370;-70.552;2023-07-31T12:01:35;92331.75;;;13.08;64.33
17521;BME280;8878;-33.370;-70.552;2023-07-31T12:04:05;92335.34;;;12.88;64.72
17521;BME280;8878;-33.370;-70.552;2023-07-31T12:06:35;92330.44;;;12.67;65.76
17521;BME280;8878;-33.370;-70.552;2023-07-31T12:09:05;92326.25;;;12.61;66.84
17521;BME280;8878;-33.370;-70.552;2023-07-31T12:11:45;92330.53;;;12.57;67.48
17521;BME280;8878;-33.370;-70.552;2023-07-31T12:14:21;92330.84;;;12.40;67.83
17521;BME280;8878;-33.370;-70.552;2023-07-31T12:16:56;92325.31;;;12.36;66.90
17521;BME280;8878;-33.370;-70.552;2023-07-31T12:19:26;92332.38;;;12.51;64.21
17521;BME280;8878;-33.370;-70.552;2023-07-31T12:21:57;92323.06;;;12.64;61.43
17521;BME280;8878;-33.370;-70.552;2023-07-31T12:24:27;92329.09;;;12.74;58.16
17521;BME280;8878;-33.370;-70.552;2023-07-31T12:26:58;92322.38;;;12.87;57.06
17521;BME280;8878;-33.370;-70.552;2023-07-31T12:29:34;92311.47;;;12.99;56.38
17521;BME280;8878;-33.370;-70.552;2023-07-31T12:32:05;92310.88;;;13.07;55.84
17521;BME280;8878;-33.370;-70.552;2023-07-31T12:34:42;92314.03;;;13.14;55.96
17521;BME280;8878;-33.370;-70.552;2023-07-31T12:37:12;92312.59;;;13.26;55.47
17521;BME280;8878;-33.370;-70.552;2023-07-31T12:39:41;92318.88;;;13.36;55.10
17521;BME280;8878;-33.370;-70.552;2023-07-31T12:42:13;92320.44;;;13.37;55.42
17521;BME280;8878;-33.370;-70.552;2023-07-31T12:44:42;92323.09;;;13.37;55.20
17521;BME280;8878;-33.370;-70.552;2023-07-31T12:47:12;92328.66;;;13.40;54.76
17521;BME280;8878;-33.370;-70.552;2023-07-31T12:49:42;92335.69;;;13.55;53.38
17521;BME280;8878;-33.370;-70.552;2023-07-31T12:52:11;92340.31;;;13.68;52.96
17521;BME280;8878;-33.370;-70.552;2023-07-31T12:54:41;92351.59;;;13.84;52.00
17521;BME280;8878;-33.370;-70.552;2023-07-31T12:57:12;92350.03;;;14.06;51.06
17521;BME280;8878;-33.370;-70.552;2023-07-31T12:59:41;92352.00;;;14.20;50.25